sensor_id;sensor_type;location;lat;lon;timestamp;P1;durP1;ratioP1;P2;durP2;ratioP2
41984;SDS011;28319;48.116;10.818;2022-07-24T00:01:10;5.05;;;4.65;;
41984;SDS011;28319;48.116;10.818;2022-07-24T00:03:37;5.53;;;5.07;;
41984;SDS011;28319;48.116;10.818;2022-07-24T00:06:04;7.53;;;6.93;;
41984;SDS011;28319;48.116;10.818;2022-07-24T00:08:32;5.85;;;5.35;;
41984;SDS011;28319;48.116;10.818;2022-07-24T00:11:00;5.38;;;4.88;;
41984;SDS011;28319;48.116;10.818;2022-07-24T00:13:28;6.93;;;6.32;;
41984;SDS011;28319;48.116;10.818;2022-07-24T00:15:55;5.05;;;4.65;;
41984;SDS011;28319;48.116;10.818;2022-07-24T00:18:22;6.85;;;6.25;;
41984;SDS011;28319;48.116;10.818;2022-07-24T00:20:49;5.15;;;4.75;;
41984;SDS011;28319;48.116;10.818;2022-07-24T00:23:17;4.82;;;4.43;;
41984;SDS011;28319;48.116;10.818;2022-07-24T00:25:44;4.82;;;4.43;;
41984;SDS011;28319;48.116;10.818;2022-07-24T00:28:12;5.50;;;5.05;;
41984;SDS011;28319;48.116;10.818;2022-07-24T00:30:40;6.40;;;5.80;;
41984;SDS011;28319;48.116;10.818;2022-07-24T00:33:07;4.88;;;4.30;;
41984;SDS011;28319;48.116;10.818;2022-07-24T00:35:34;5.47;;;4.97;;
41984;SDS011;28319;48.116;10.818;2022-07-24T00:38:02;7.63;;;6.93;;
41984;SDS011;28319;48.116;10.818;2022-07-24T00:40:30;5.45;;;5.05;;
41984;SDS011;28319;48.116;10.818;2022-07-24T00:42:57;4.93;;;4.53;;
41984;SDS011;28319;48.116;10.818;2022-07-24T00:45:27;7.93;;;7.13;;
41984;SDS011;28319;48.116;10.818;2022-07-24T00:47:54;6.57;;;5.97;;
41984;SDS011;28319;48.116;10.818;2022-07-24T00:50:21;7.32;;;6.65;;
41984;SDS011;28319;48.116;10.818;2022-07-24T00:52:48;10.68;;;8.50;;
41984;SDS011;28319;48.116;10.818;2022-07-24T00:55:16;7.47;;;6.68;;
41984;SDS011;28319;48.116;10.818;2022-07-24T00:57:43;7.57;;;6.88;;
41984;SDS011;28319;48.116;10.818;2022-07-24T01:00:14;8.07;;;7.28;;
41984;SDS011;28319;48.116;10.818;2022-07-24T01:02:45;9.68;;;8.77;;
41984;SDS011;28319;48.116;10.818;2022-07-24T01:05:12;8.90;;;7.28;;
41984;SDS011;28319;48.116;10.818;2022-07-24T01:07:39;8.07;;;7.25;;
41984;SDS011;28319;48.116;10.818;2022-07-24T01:10:07;7.28;;;6.63;;
41984;SDS011;28319;48.116;10.818;2022-07-24T01:12:35;9.35;;;8.38;;
41984;SDS011;28319;48.116;10.818;2022-07-24T01:15:02;8.70;;;7.82;;
41984;SDS011;28319;48.116;10.818;2022-07-24T01:17:31;9.30;;;8.35;;
41984;SDS011;28319;48.116;10.818;2022-07-24T01:20:00;7.75;;;6.88;;
41984;SDS011;28319;48.116;10.818;2022-07-24T01:22:29;9.82;;;8.82;;
41984;SDS011;28319;48.116;10.818;2022-07-24T01:24:56;8.00;;;7.20;;
41984;SDS011;28319;48.116;10.818;2022-07-24T01:27:24;7.88;;;7.07;;
41984;SDS011;28319;48.116;10.818;2022-07-24T01:29:51;6.15;;;5.60;;
41984;SDS011;28319;48.116;10.818;2022-07-24T01:32:19;7.72;;;6.32;;
41984;SDS011;28319;48.116;10.818;2022-07-24T01:34:46;6.47;;;5.88;;
41984;SDS011;28319;48.116;10.818;2022-07-24T01:37:13;5.82;;;5.18;;
41984;SDS011;28319;48.116;10.818;2022-07-24T01:39:42;7.00;;;6.40;;
41984;SDS011;28319;48.116;10.818;2022-07-24T01:42:09;8.85;;;8.00;;
41984;SDS011;28319;48.116;10.818;2022-07-24T01:44:36;10.23;;;9.23;;
41984;SDS011;28319;48.116;10.818;2022-07-24T01:47:03;8.52;;;7.20;;
41984;SDS011;28319;48.116;10.818;2022-07-24T01:49:31;6.85;;;5.88;;
41984;SDS011;28319;48.116;10.818;2022-07-24T01:51:58;6.78;;;6.03;;
41984;SDS011;28319;48.116;10.818;2022-07-24T01:54:25;5.60;;;5.10;;
41984;SDS011;28319;48.116;10.818;2022-07-24T01:56:53;9.57;;;8.50;;
41984;SDS011;28319;48.116;10.818;2022-07-24T01:59:21;12.23;;;8.93;;
41984;SDS011;28319;48.116;10.818;2022-07-24T02:01:48;8.27;;;7.47;;
41984;SDS011;28319;48.116;10.818;2022-07-24T02:04:15;7.55;;;6.85;;
41984;SDS011;28319;48.116;10.818;2022-07-24T02:06:42;6.68;;;6.07;;
41984;SDS011;28319;48.116;10.818;2022-07-24T02:09:09;6.60;;;6.00;;
41984;SDS011;28319;48.116;10.818;2022-07-24T02:11:37;6.05;;;5.57;;
41984;SDS011;28319;48.116;10.818;2022-07-24T02:14:05;6.25;;;5.75;;
41984;SDS011;28319;48.116;10.818;2022-07-24T02:16:32;14.85;;;9.07;;
41984;SDS011;28319;48.116;10.818;2022-07-24T02:18:59;6.47;;;5.88;;
41984;SDS011;28319;48.116;10.818;2022-07-24T02:21:27;6.78;;;6.18;;
41984;SDS011;28319;48.116;10.818;2022-07-24T02:23:54;6.03;;;5.53;;
41984;SDS011;28319;48.116;10.818;2022-07-24T02:26:22;7.15;;;6.43;;
41984;SDS011;28319;48.116;10.818;2022-07-24T02:28:49;6.30;;;5.47;;
41984;SDS011;28319;48.116;10.818;2022-07-24T02:31:17;7.60;;;6.85;;
41984;SDS011;28319;48.116;10.818;2022-07-24T02:33:45;6.00;;;5.40;;
41984;SDS011;28319;48.116;10.818;2022-07-24T02:36:12;5.55;;;5.05;;
41984;SDS011;28319;48.116;10.818;2022-07-24T02:38:39;5.63;;;5.20;;
41984;SDS011;28319;48.116;10.818;2022-07-24T02:41:06;5.72;;;5.18;;
41984;SDS011;28319;48.116;10.818;2022-07-24T02:43:34;5.25;;;4.85;;
41984;SDS011;28319;48.116;10.818;2022-07-24T02:46:01;5.60;;;5.20;;
41984;SDS011;28319;48.116;10.818;2022-07-24T02:48:30;6.65;;;5.90;;
41984;SDS011;28319;48.116;10.818;2022-07-24T02:50:58;6.07;;;5.50;;
41984;SDS011;28319;48.116;10.818;2022-07-24T02:53:25;5.88;;;5.32;;
41984;SDS011;28319;48.116;10.818;2022-07-24T02:55:52;5.50;;;5.00;;
41984;SDS011;28319;48.116;10.818;2022-07-24T02:58:19;5.80;;;5.28;;
41984;SDS011;28319;48.116;10.818;2022-07-24T03:00:47;5.28;;;4.88;;
41984;SDS011;28319;48.116;10.818;2022-07-24T03:03:14;6.72;;;6.03;;
41984;SDS011;28319;48.116;10.818;2022-07-24T03:05:43;5.65;;;5.15;;
41984;SDS011;28319;48.116;10.818;2022-07-24T03:08:10;5.70;;;5.20;;
41984;SDS011;28319;48.116;10.818;2022-07-24T03:10:37;6.88;;;6.28;;
41984;SDS011;28319;48.116;10.818;2022-07-24T03:13:04;6.15;;;5.65;;
41984;SDS011;28319;48.116;10.818;2022-07-24T03:15:32;5.95;;;5.10;;
41984;SDS011;28319;48.116;10.818;2022-07-24T03:17:59;6.85;;;5.45;;
41984;SDS011;28319;48.116;10.818;2022-07-24T03:20:27;5.03;;;4.63;;
41984;SDS011;28319;48.116;10.818;2022-07-24T03:22:56;6.10;;;5.60;;
41984;SDS011;28319;48.116;10.818;2022-07-24T03:25:24;5.75;;;5.13;;
41984;SDS011;28319;48.116;10.818;2022-07-24T03:27:51;7.07;;;6.38;;
41984;SDS011;28319;48.116;10.818;2022-07-24T03:30:37;5.88;;;5.35;;
41984;SDS011;28319;48.116;10.818;2022-07-24T03:33:04;5.90;;;5.40;;
41984;SDS011;28319;48.116;10.818;2022-07-24T03:35:31;5.82;;;5.30;;
41984;SDS011;28319;48.116;10.818;2022-07-24T03:38:00;5.38;;;4.88;;
41984;SDS011;28319;48.116;10.818;2022-07-24T03:40:27;5.30;;;4.90;;
41984;SDS011;28319;48.116;10.818;2022-07-24T03:42:55;5.47;;;5.05;;
41984;SDS011;28319;48.116;10.818;2022-07-24T03:45:25;4.90;;;4.50;;
41984;SDS011;28319;48.116;10.818;2022-07-24T03:47:52;6.03;;;5.53;;
41984;SDS011;28319;48.116;10.818;2022-07-24T03:50:19;5.82;;;5.32;;
41984;SDS011;28319;48.116;10.818;2022-07-24T03:52:46;5.38;;;4.88;;
41984;SDS011;28319;48.116;10.818;2022-07-24T03:55:15;5.05;;;4.65;;
41984;SDS011;28319;48.116;10.818;2022-07-24T03:57:43;6.43;;;5.82;;
41984;SDS011;28319;48.116;10.818;2022-07-24T04:00:11;5.93;;;5.32;;
41984;SDS011;28319;48.116;10.818;2022-07-24T04:02:39;6.00;;;4.82;;
41984;SDS011;28319;48.116;10.818;2022-07-24T04:05:06;5.18;;;4.78;;
41984;SDS011;28319;48.116;10.818;2022-07-24T04:07:34;5.75;;;5.25;;
41984;SDS011;28319;48.116;10.818;2022-07-24T04:10:02;5.63;;;5.15;;
41984;SDS011;28319;48.116;10.818;2022-07-24T04:12:32;5.68;;;5.15;;
41984;SDS011;28319;48.116;10.818;2022-07-24T04:17:36;5.70;;;5.22;;
41984;SDS011;28319;48.116;10.818;2022-07-24T04:20:04;5.57;;;5.07;;
41984;SDS011;28319;48.116;10.818;2022-07-24T04:22:32;5.20;;;4.80;;
41984;SDS011;28319;48.116;10.818;2022-07-24T04:24:59;5.00;;;4.60;;
41984;SDS011;28319;48.116;10.818;2022-07-24T04:27:26;5.50;;;5.10;;
41984;SDS011;28319;48.116;10.818;2022-07-24T04:29:54;5.10;;;4.70;;
41984;SDS011;28319;48.116;10.818;2022-07-24T04:32:23;4.90;;;4.50;;
41984;SDS011;28319;48.116;10.818;2022-07-24T04:34:50;5.55;;;5.05;;
41984;SDS011;28319;48.116;10.818;2022-07-24T04:37:17;7.32;;;6.63;;
41984;SDS011;28319;48.116;10.818;2022-07-24T04:39:44;6.28;;;5.75;;
41984;SDS011;28319;48.116;10.818;2022-07-24T04:42:11;7.30;;;6.57;;
41984;SDS011;28319;48.116;10.818;2022-07-24T04:44:39;5.90;;;5.40;;
41984;SDS011;28319;48.116;10.818;2022-07-24T04:47:08;6.82;;;5.53;;
41984;SDS011;28319;48.116;10.818;2022-07-24T04:49:35;5.90;;;5.40;;
41984;SDS011;28319;48.116;10.818;2022-07-24T04:52:03;5.88;;;5.32;;
41984;SDS011;28319;48.116;10.818;2022-07-24T04:54:30;6.55;;;5.50;;
41984;SDS011;28319;48.116;10.818;2022-07-24T04:56:57;5.80;;;5.22;;
41984;SDS011;28319;48.116;10.818;2022-07-24T04:59:25;4.70;;;4.30;;
41984;SDS011;28319;48.116;10.818;2022-07-24T05:01:52;5.93;;;5.43;;
41984;SDS011;28319;48.116;10.818;2022-07-24T05:04:20;5.80;;;5.30;;
41984;SDS011;28319;48.116;10.818;2022-07-24T05:06:47;6.20;;;5.13;;
41984;SDS011;28319;48.116;10.818;2022-07-24T05:09:15;5.75;;;5.30;;
41984;SDS011;28319;48.116;10.818;2022-07-24T05:11:42;5.80;;;5.30;;
41984;SDS011;28319;48.116;10.818;2022-07-24T05:14:09;5.80;;;5.20;;
41984;SDS011;28319;48.116;10.818;2022-07-24T05:16:36;5.95;;;4.72;;
41984;SDS011;28319;48.116;10.818;2022-07-24T05:19:04;5.70;;;5.15;;
41984;SDS011;28319;48.116;10.818;2022-07-24T05:21:32;5.07;;;4.68;;
41984;SDS011;28319;48.116;10.818;2022-07-24T05:23:59;5.43;;;5.00;;
41984;SDS011;28319;48.116;10.818;2022-07-24T05:26:27;5.00;;;4.60;;
41984;SDS011;28319;48.116;10.818;2022-07-24T05:28:56;6.05;;;5.55;;
41984;SDS011;28319;48.116;10.818;2022-07-24T05:31:23;7.57;;;5.65;;
41984;SDS011;28319;48.116;10.818;2022-07-24T05:33:51;5.22;;;4.82;;
41984;SDS011;28319;48.116;10.818;2022-07-24T05:36:18;4.50;;;4.18;;
41984;SDS011;28319;48.116;10.818;2022-07-24T05:38:47;5.03;;;4.63;;
41984;SDS011;28319;48.116;10.818;2022-07-24T05:41:14;5.18;;;4.75;;
41984;SDS011;28319;48.116;10.818;2022-07-24T05:43:41;6.35;;;5.55;;
41984;SDS011;28319;48.116;10.818;2022-07-24T05:46:08;6.68;;;6.07;;
41984;SDS011;28319;48.116;10.818;2022-07-24T05:48:35;5.88;;;5.32;;
41984;SDS011;28319;48.116;10.818;2022-07-24T05:51:03;7.07;;;6.43;;
41984;SDS011;28319;48.116;10.818;2022-07-24T05:53:31;8.32;;;6.88;;
41984;SDS011;28319;48.116;10.818;2022-07-24T05:56:00;9.55;;;8.55;;
41984;SDS011;28319;48.116;10.818;2022-07-24T05:58:27;9.55;;;8.65;;
41984;SDS011;28319;48.116;10.818;2022-07-24T06:00:54;8.40;;;7.55;;
41984;SDS011;28319;48.116;10.818;2022-07-24T06:03:22;10.77;;;8.45;;
41984;SDS011;28319;48.116;10.818;2022-07-24T06:05:48;6.55;;;5.95;;
41984;SDS011;28319;48.116;10.818;2022-07-24T06:08:16;10.63;;;7.22;;
41984;SDS011;28319;48.116;10.818;2022-07-24T06:10:43;8.48;;;7.68;;
41984;SDS011;28319;48.116;10.818;2022-07-24T06:13:12;9.07;;;8.00;;
41984;SDS011;28319;48.116;10.818;2022-07-24T06:15:39;6.50;;;5.90;;
41984;SDS011;28319;48.116;10.818;2022-07-24T06:18:06;5.68;;;5.10;;
41984;SDS011;28319;48.116;10.818;2022-07-24T06:20:33;10.43;;;8.50;;
41984;SDS011;28319;48.116;10.818;2022-07-24T06:23:01;10.15;;;9.10;;
41984;SDS011;28319;48.116;10.818;2022-07-24T06:25:28;7.45;;;6.75;;
41984;SDS011;28319;48.116;10.818;2022-07-24T06:27:56;6.72;;;6.03;;
41984;SDS011;28319;48.116;10.818;2022-07-24T06:30:25;8.05;;;7.32;;
41984;SDS011;28319;48.116;10.818;2022-07-24T06:32:54;7.65;;;6.90;;
41984;SDS011;28319;48.116;10.818;2022-07-24T06:35:22;7.10;;;6.50;;
41984;SDS011;28319;48.116;10.818;2022-07-24T06:37:51;12.35;;;10.98;;
41984;SDS011;28319;48.116;10.818;2022-07-24T06:40:18;12.65;;;10.85;;
41984;SDS011;28319;48.116;10.818;2022-07-24T06:42:46;11.73;;;10.63;;
41984;SDS011;28319;48.116;10.818;2022-07-24T06:45:14;10.73;;;9.63;;
41984;SDS011;28319;48.116;10.818;2022-07-24T06:47:43;10.25;;;9.23;;
41984;SDS011;28319;48.116;10.818;2022-07-24T06:50:11;10.60;;;9.45;;
41984;SDS011;28319;48.116;10.818;2022-07-24T06:52:39;9.20;;;8.07;;
41984;SDS011;28319;48.116;10.818;2022-07-24T06:55:07;10.93;;;8.38;;
41984;SDS011;28319;48.116;10.818;2022-07-24T06:57:35;11.13;;;8.73;;
41984;SDS011;28319;48.116;10.818;2022-07-24T07:00:04;8.30;;;7.43;;
41984;SDS011;28319;48.116;10.818;2022-07-24T07:02:33;9.10;;;7.93;;
41984;SDS011;28319;48.116;10.818;2022-07-24T07:05:01;9.65;;;8.35;;
41984;SDS011;28319;48.116;10.818;2022-07-24T07:07:29;10.85;;;8.55;;
41984;SDS011;28319;48.116;10.818;2022-07-24T07:09:56;8.75;;;7.93;;
41984;SDS011;28319;48.116;10.818;2022-07-24T07:12:23;9.90;;;8.88;;
41984;SDS011;28319;48.116;10.818;2022-07-24T07:14:51;10.18;;;9.15;;
41984;SDS011;28319;48.116;10.818;2022-07-24T07:17:18;9.88;;;8.88;;
41984;SDS011;28319;48.116;10.818;2022-07-24T07:19:45;9.68;;;8.77;;
41984;SDS011;28319;48.116;10.818;2022-07-24T07:22:13;10.35;;;8.02;;
41984;SDS011;28319;48.116;10.818;2022-07-24T07:24:41;7.53;;;6.82;;
41984;SDS011;28319;48.116;10.818;2022-07-24T07:27:07;6.25;;;5.75;;
41984;SDS011;28319;48.116;10.818;2022-07-24T07:29:34;8.52;;;7.68;;
41984;SDS011;28319;48.116;10.818;2022-07-24T07:32:02;9.32;;;7.38;;
41984;SDS011;28319;48.116;10.818;2022-07-24T07:34:29;9.73;;;8.10;;
41984;SDS011;28319;48.116;10.818;2022-07-24T07:36:56;11.25;;;9.95;;
41984;SDS011;28319;48.116;10.818;2022-07-24T07:39:25;10.50;;;9.50;;
41984;SDS011;28319;48.116;10.818;2022-07-24T07:41:52;10.77;;;9.52;;
41984;SDS011;28319;48.116;10.818;2022-07-24T07:44:19;10.02;;;9.02;;
41984;SDS011;28319;48.116;10.818;2022-07-24T07:46:46;10.63;;;8.18;;
41984;SDS011;28319;48.116;10.818;2022-07-24T07:49:14;10.93;;;8.82;;
41984;SDS011;28319;48.116;10.818;2022-07-24T07:51:41;9.63;;;8.63;;
41984;SDS011;28319;48.116;10.818;2022-07-24T07:54:12;8.00;;;7.22;;
41984;SDS011;28319;48.116;10.818;2022-07-24T07:56:41;11.10;;;6.68;;
41984;SDS011;28319;48.116;10.818;2022-07-24T07:59:09;7.70;;;7.00;;
41984;SDS011;28319;48.116;10.818;2022-07-24T08:01:36;6.70;;;6.10;;
41984;SDS011;28319;48.116;10.818;2022-07-24T08:04:03;7.88;;;6.72;;
41984;SDS011;28319;48.116;10.818;2022-07-24T08:06:31;7.20;;;6.50;;
41984;SDS011;28319;48.116;10.818;2022-07-24T08:08:58;7.53;;;6.70;;
41984;SDS011;28319;48.116;10.818;2022-07-24T08:11:25;7.07;;;6.20;;
41984;SDS011;28319;48.116;10.818;2022-07-24T08:13:53;5.97;;;5.47;;
41984;SDS011;28319;48.116;10.818;2022-07-24T08:16:20;7.85;;;6.70;;
41984;SDS011;28319;48.116;10.818;2022-07-24T08:18:48;7.50;;;6.82;;
41984;SDS011;28319;48.116;10.818;2022-07-24T08:21:16;6.93;;;6.22;;
41984;SDS011;28319;48.116;10.818;2022-07-24T08:23:44;6.65;;;5.97;;
41984;SDS011;28319;48.116;10.818;2022-07-24T08:26:11;10.90;;;6.65;;
41984;SDS011;28319;48.116;10.818;2022-07-24T08:28:39;6.95;;;6.35;;
41984;SDS011;28319;48.116;10.818;2022-07-24T08:31:08;6.30;;;5.80;;
41984;SDS011;28319;48.116;10.818;2022-07-24T08:33:35;6.90;;;6.20;;
41984;SDS011;28319;48.116;10.818;2022-07-24T08:36:03;7.53;;;6.80;;
41984;SDS011;28319;48.116;10.818;2022-07-24T08:38:30;7.70;;;6.75;;
41984;SDS011;28319;48.116;10.818;2022-07-24T08:40:57;7.00;;;6.40;;
41984;SDS011;28319;48.116;10.818;2022-07-24T08:43:25;8.13;;;6.43;;
41984;SDS011;28319;48.116;10.818;2022-07-24T08:45:53;6.20;;;5.63;;
41984;SDS011;28319;48.116;10.818;2022-07-24T08:48:23;6.07;;;5.57;;
41984;SDS011;28319;48.116;10.818;2022-07-24T08:50:53;6.15;;;5.55;;
41984;SDS011;28319;48.116;10.818;2022-07-24T08:53:20;6.80;;;5.85;;
41984;SDS011;28319;48.116;10.818;2022-07-24T08:55:48;6.20;;;5.60;;
41984;SDS011;28319;48.116;10.818;2022-07-24T08:58:16;6.40;;;5.80;;
41984;SDS011;28319;48.116;10.818;2022-07-24T09:00:43;6.47;;;5.95;;
41984;SDS011;28319;48.116;10.818;2022-07-24T09:03:10;6.55;;;5.95;;
41984;SDS011;28319;48.116;10.818;2022-07-24T09:08:21;6.53;;;5.93;;
41984;SDS011;28319;48.116;10.818;2022-07-24T09:10:55;6.07;;;5.57;;
41984;SDS011;28319;48.116;10.818;2022-07-24T09:13:26;6.30;;;5.53;;
41984;SDS011;28319;48.116;10.818;2022-07-24T09:16:17;6.35;;;5.85;;
41984;SDS011;28319;48.116;10.818;2022-07-24T09:18:48;6.10;;;5.50;;
41984;SDS011;28319;48.116;10.818;2022-07-24T09:21:17;6.40;;;5.80;;
41984;SDS011;28319;48.116;10.818;2022-07-24T09:23:45;6.60;;;5.35;;
41984;SDS011;28319;48.116;10.818;2022-07-24T09:26:13;5.63;;;5.13;;
41984;SDS011;28319;48.116;10.818;2022-07-24T09:28:50;6.32;;;5.72;;
41984;SDS011;28319;48.116;10.818;2022-07-24T09:31:19;6.25;;;5.65;;
41984;SDS011;28319;48.116;10.818;2022-07-24T09:33:48;5.82;;;5.43;;
41984;SDS011;28319;48.116;10.818;2022-07-24T09:36:17;6.88;;;6.28;;
41984;SDS011;28319;48.116;10.818;2022-07-24T09:38:48;6.15;;;5.65;;
41984;SDS011;28319;48.116;10.818;2022-07-24T09:41:19;6.97;;;6.18;;
41984;SDS011;28319;48.116;10.818;2022-07-24T09:43:55;6.65;;;6.05;;
41984;SDS011;28319;48.116;10.818;2022-07-24T09:46:25;6.57;;;5.90;;
41984;SDS011;28319;48.116;10.818;2022-07-24T09:48:54;6.72;;;6.07;;
41984;SDS011;28319;48.116;10.818;2022-07-24T09:51:24;6.15;;;5.55;;
41984;SDS011;28319;48.116;10.818;2022-07-24T09:53:52;6.35;;;5.85;;
41984;SDS011;28319;48.116;10.818;2022-07-24T09:56:20;8.90;;;6.07;;
41984;SDS011;28319;48.116;10.818;2022-07-24T09:58:48;6.32;;;5.55;;
41984;SDS011;28319;48.116;10.818;2022-07-24T10:01:18;6.68;;;5.90;;
41984;SDS011;28319;48.116;10.818;2022-07-24T10:03:47;6.38;;;5.80;;
41984;SDS011;28319;48.116;10.818;2022-07-24T10:06:17;6.43;;;5.80;;
41984;SDS011;28319;48.116;10.818;2022-07-24T10:08:48;6.00;;;5.50;;
41984;SDS011;28319;48.116;10.818;2022-07-24T10:11:17;6.03;;;5.53;;
41984;SDS011;28319;48.116;10.818;2022-07-24T10:13:44;6.57;;;5.97;;
41984;SDS011;28319;48.116;10.818;2022-07-24T10:16:24;6.65;;;6.05;;
41984;SDS011;28319;48.116;10.818;2022-07-24T10:18:53;6.72;;;6.00;;
41984;SDS011;28319;48.116;10.818;2022-07-24T10:21:22;6.57;;;5.90;;
41984;SDS011;28319;48.116;10.818;2022-07-24T10:27:01;5.88;;;5.38;;
41984;SDS011;28319;48.116;10.818;2022-07-24T10:29:31;6.25;;;5.60;;
41984;SDS011;28319;48.116;10.818;2022-07-24T10:32:01;6.10;;;5.60;;
41984;SDS011;28319;48.116;10.818;2022-07-24T10:34:30;6.97;;;6.03;;
41984;SDS011;28319;48.116;10.818;2022-07-24T10:37:05;6.10;;;5.60;;
41984;SDS011;28319;48.116;10.818;2022-07-24T10:39:42;6.13;;;5.38;;
41984;SDS011;28319;48.116;10.818;2022-07-24T10:42:16;6.00;;;5.40;;
41984;SDS011;28319;48.116;10.818;2022-07-24T10:44:43;6.20;;;5.40;;
41984;SDS011;28319;48.116;10.818;2022-07-24T10:47:11;6.05;;;5.50;;
41984;SDS011;28319;48.116;10.818;2022-07-24T10:49:40;6.75;;;5.53;;
41984;SDS011;28319;48.116;10.818;2022-07-24T10:52:10;6.63;;;5.93;;
41984;SDS011;28319;48.116;10.818;2022-07-24T10:54:40;6.57;;;5.90;;
41984;SDS011;28319;48.116;10.818;2022-07-24T10:57:07;6.38;;;5.78;;
41984;SDS011;28319;48.116;10.818;2022-07-24T10:59:35;8.73;;;5.50;;
41984;SDS011;28319;48.116;10.818;2022-07-24T11:11:17;5.93;;;5.53;;
41984;SDS011;28319;48.116;10.818;2022-07-24T11:13:50;5.68;;;5.18;;
41984;SDS011;28319;48.116;10.818;2022-07-24T11:16:19;6.15;;;5.65;;
41984;SDS011;28319;48.116;10.818;2022-07-24T11:22:01;5.82;;;5.32;;
41984;SDS011;28319;48.116;10.818;2022-07-24T11:24:30;7.38;;;5.30;;
41984;SDS011;28319;48.116;10.818;2022-07-24T11:26:59;5.85;;;5.35;;
41984;SDS011;28319;48.116;10.818;2022-07-24T11:29:31;6.10;;;5.60;;
41984;SDS011;28319;48.116;10.818;2022-07-24T11:32:01;6.07;;;5.57;;
41984;SDS011;28319;48.116;10.818;2022-07-24T11:34:32;5.50;;;5.10;;
41984;SDS011;28319;48.116;10.818;2022-07-24T11:37:00;5.80;;;5.30;;
41984;SDS011;28319;48.116;10.818;2022-07-24T11:39:30;6.07;;;5.28;;
41984;SDS011;28319;48.116;10.818;2022-07-24T11:42:00;5.50;;;5.00;;
41984;SDS011;28319;48.116;10.818;2022-07-24T11:44:30;6.30;;;5.72;;
41984;SDS011;28319;48.116;10.818;2022-07-24T11:46:58;5.72;;;5.22;;
41984;SDS011;28319;48.116;10.818;2022-07-24T11:49:27;6.05;;;5.55;;
41984;SDS011;28319;48.116;10.818;2022-07-24T11:51:54;7.95;;;5.25;;
41984;SDS011;28319;48.116;10.818;2022-07-24T11:54:22;6.57;;;5.35;;
41984;SDS011;28319;48.116;10.818;2022-07-24T11:56:51;5.93;;;5.32;;
41984;SDS011;28319;48.116;10.818;2022-07-24T11:59:23;5.70;;;5.20;;
41984;SDS011;28319;48.116;10.818;2022-07-24T12:01:54;5.55;;;5.15;;
41984;SDS011;28319;48.116;10.818;2022-07-24T12:04:22;5.55;;;5.05;;
41984;SDS011;28319;48.116;10.818;2022-07-24T12:06:50;5.50;;;5.10;;
41984;SDS011;28319;48.116;10.818;2022-07-24T12:09:17;5.72;;;5.20;;
41984;SDS011;28319;48.116;10.818;2022-07-24T12:11:45;6.00;;;5.50;;
41984;SDS011;28319;48.116;10.818;2022-07-24T12:14:12;5.82;;;5.35;;
41984;SDS011;28319;48.116;10.818;2022-07-24T12:16:42;6.03;;;5.13;;
41984;SDS011;28319;48.116;10.818;2022-07-24T12:19:11;6.05;;;5.30;;
41984;SDS011;28319;48.116;10.818;2022-07-24T12:21:39;5.43;;;4.93;;
41984;SDS011;28319;48.116;10.818;2022-07-24T12:24:07;6.88;;;5.40;;
41984;SDS011;28319;48.116;10.818;2022-07-24T12:26:47;5.63;;;5.18;;
41984;SDS011;28319;48.116;10.818;2022-07-24T12:29:14;5.07;;;4.68;;
41984;SDS011;28319;48.116;10.818;2022-07-24T12:31:43;5.47;;;5.07;;
41984;SDS011;28319;48.116;10.818;2022-07-24T12:34:10;5.80;;;5.30;;
41984;SDS011;28319;48.116;10.818;2022-07-24T12:36:38;5.22;;;4.82;;
41984;SDS011;28319;48.116;10.818;2022-07-24T12:39:05;5.70;;;5.05;;
41984;SDS011;28319;48.116;10.818;2022-07-24T12:41:40;5.88;;;5.30;;
41984;SDS011;28319;48.116;10.818;2022-07-24T12:44:10;5.60;;;4.97;;
41984;SDS011;28319;48.116;10.818;2022-07-24T12:46:38;5.25;;;4.85;;
41984;SDS011;28319;48.116;10.818;2022-07-24T12:49:07;4.97;;;4.40;;
41984;SDS011;28319;48.116;10.818;2022-07-24T12:51:48;5.50;;;5.10;;
41984;SDS011;28319;48.116;10.818;2022-07-24T12:54:17;5.20;;;4.80;;
41984;SDS011;28319;48.116;10.818;2022-07-24T12:56:45;5.72;;;4.63;;
41984;SDS011;28319;48.116;10.818;2022-07-24T12:59:23;6.75;;;5.18;;
41984;SDS011;28319;48.116;10.818;2022-07-24T13:01:52;5.40;;;4.90;;
41984;SDS011;28319;48.116;10.818;2022-07-24T13:04:22;5.28;;;4.90;;
41984;SDS011;28319;48.116;10.818;2022-07-24T13:06:51;5.30;;;4.82;;
41984;SDS011;28319;48.116;10.818;2022-07-24T13:09:19;5.18;;;4.78;;
41984;SDS011;28319;48.116;10.818;2022-07-24T13:11:48;4.75;;;4.35;;
41984;SDS011;28319;48.116;10.818;2022-07-24T13:14:16;5.13;;;4.70;;
41984;SDS011;28319;48.116;10.818;2022-07-24T13:16:45;6.22;;;5.40;;
41984;SDS011;28319;48.116;10.818;2022-07-24T13:19:15;6.35;;;4.97;;
41984;SDS011;28319;48.116;10.818;2022-07-24T13:21:44;5.50;;;5.00;;
41984;SDS011;28319;48.116;10.818;2022-07-24T13:24:13;5.43;;;5.03;;
41984;SDS011;28319;48.116;10.818;2022-07-24T13:26:42;5.30;;;4.90;;
41984;SDS011;28319;48.116;10.818;2022-07-24T13:29:10;5.78;;;4.60;;
41984;SDS011;28319;48.116;10.818;2022-07-24T13:31:40;5.60;;;4.88;;
41984;SDS011;28319;48.116;10.818;2022-07-24T13:34:09;8.10;;;4.80;;
41984;SDS011;28319;48.116;10.818;2022-07-24T13:36:36;5.18;;;4.68;;
41984;SDS011;28319;48.116;10.818;2022-07-24T13:39:05;6.05;;;4.70;;
41984;SDS011;28319;48.116;10.818;2022-07-24T13:41:33;5.40;;;5.00;;
41984;SDS011;28319;48.116;10.818;2022-07-24T13:44:00;5.78;;;4.57;;
41984;SDS011;28319;48.116;10.818;2022-07-24T13:46:28;5.10;;;4.70;;
41984;SDS011;28319;48.116;10.818;2022-07-24T13:48:56;5.18;;;4.78;;
41984;SDS011;28319;48.116;10.818;2022-07-24T13:51:23;5.50;;;5.00;;
41984;SDS011;28319;48.116;10.818;2022-07-24T13:53:50;5.75;;;5.25;;
41984;SDS011;28319;48.116;10.818;2022-07-24T13:56:19;5.15;;;4.75;;
41984;SDS011;28319;48.116;10.818;2022-07-24T13:58:47;4.80;;;4.43;;
41984;SDS011;28319;48.116;10.818;2022-07-24T14:01:14;4.90;;;4.60;;
41984;SDS011;28319;48.116;10.818;2022-07-24T14:03:44;5.50;;;5.00;;
41984;SDS011;28319;48.116;10.818;2022-07-24T14:06:12;5.20;;;4.80;;
41984;SDS011;28319;48.116;10.818;2022-07-24T14:08:40;5.00;;;4.60;;
41984;SDS011;28319;48.116;10.818;2022-07-24T14:11:07;4.70;;;4.30;;
41984;SDS011;28319;48.116;10.818;2022-07-24T14:13:37;6.57;;;5.00;;
41984;SDS011;28319;48.116;10.818;2022-07-24T14:16:04;4.50;;;4.20;;
41984;SDS011;28319;48.116;10.818;2022-07-24T14:18:32;5.18;;;4.60;;
41984;SDS011;28319;48.116;10.818;2022-07-24T14:20:59;5.72;;;5.22;;
41984;SDS011;28319;48.116;10.818;2022-07-24T14:23:26;5.55;;;4.50;;
41984;SDS011;28319;48.116;10.818;2022-07-24T14:25:53;6.05;;;5.43;;
41984;SDS011;28319;48.116;10.818;2022-07-24T14:28:20;5.25;;;4.85;;
41984;SDS011;28319;48.116;10.818;2022-07-24T14:30:49;4.65;;;4.35;;
41984;SDS011;28319;48.116;10.818;2022-07-24T14:33:16;4.95;;;4.55;;
41984;SDS011;28319;48.116;10.818;2022-07-24T14:35:43;4.80;;;4.40;;
41984;SDS011;28319;48.116;10.818;2022-07-24T14:38:10;5.30;;;4.78;;
41984;SDS011;28319;48.116;10.818;2022-07-24T14:40:37;5.20;;;4.80;;
41984;SDS011;28319;48.116;10.818;2022-07-24T14:43:04;4.88;;;4.40;;
41984;SDS011;28319;48.116;10.818;2022-07-24T14:45:31;5.50;;;5.00;;
41984;SDS011;28319;48.116;10.818;2022-07-24T14:48:00;5.45;;;4.95;;
41984;SDS011;28319;48.116;10.818;2022-07-24T14:50:27;6.93;;;4.60;;
41984;SDS011;28319;48.116;10.818;2022-07-24T14:52:54;4.82;;;4.53;;
41984;SDS011;28319;48.116;10.818;2022-07-24T14:55:22;4.32;;;4.03;;
41984;SDS011;28319;48.116;10.818;2022-07-24T14:57:49;4.47;;;4.18;;
41984;SDS011;28319;48.116;10.818;2022-07-24T15:00:16;5.05;;;4.60;;